Terminal Aerodrome Forecast
Issued by NWS

Home | Current Version | Previous Version | Text Only | Print | Product List | Glossary On
Versions: 1 2 3 4 5 6 7 8 9 10 11 12 13 14 15 16 17
000
FTUS42 KMLB 012343
TAFTIX
TAF
KTIX 012343Z 0200/0224 10010KT P6SM SCT030 SCT250
     FM020600 35004KT 3SM BR OVC003
      TEMPO 0209/0212 1SM BR
     FM021400 02003KT P6SM BKN010
     FM021600 06007KT P6SM BKN025=

USA.gov is the U.S. government's official web portal to all federal, state and local government web resources and services.